Seattle, WA (98146)

12:55 PM PDT on September 01, 2014 (GMT -0700)
Burien, WA | Change Station
CLOSE
Current Station
Personal Weather Station
Location: Burien, WA
Elevation: 413 ft
Nearby Weather Stations

Elev 413 ft 47.50 °N, 122.35 °W | Updated 4 seconds ago

Scattered Clouds
Scattered Clouds
68.6 °F
Feels Like 68.6 °F
N
1.6
Wind Variable Wind from WSW
Gusts 8.0 mph

Today
High -- | Low -- °F
--% Chance of Precip.
Yesterday
High -- | Low -- °F
Precip. -- in
6:28 AM 7:49 PM
Waxing Crescent, 43% visible
Pressure 30.09 in
Visibility 10.0 miles
Clouds Scattered Clouds 2600 ft
Dew Point 54 °F
Humidity 61%
Rainfall 0.00 in
Snow Depth Not available.
UV 5 out of 12
Pollen 3.10 out of 12
Air Quality Not available.
Flu Activity Not available.
METAR KBFI 011853Z 22005KT 10SM SCT026 21/12 A3009 RMK AO2 SLP187 T02060117

More Conditions Fewer Conditions

Pressure 30.09 in
Visibility 10.0 miles
Clouds Scattered Clouds 2600 ft
Dew Point 54 °F
Humidity 61%
Rainfall 0.00 in
Snow Depth Not available.
UV 5 out of 12
Pollen 3.10 out of 12
Air Quality Not available.
Flu Activity Not available.
METAR KBFI 011853Z 22005KT 10SM SCT026 21/12 A3009 RMK AO2 SLP187 T02060117

More Conditions Fewer Conditions

10-Day Weather Forecast

Almanac

Astronomy

Sep. 01, 2014 Rise Set
Actual Time 6:28 AM PDT 7:49 PM PDT
Civil Twilight 5:56 AM PDT 8:21 PM PDT
Nautical Twilight 5:17 AM PDT 8:59 PM PDT
Astronomical Twilight 4:36 AM PDT 9:40 PM PDT
Moon 1:47 PM PDT 11:26 PM PDT
Length of Visible Light 14h 24m
Length of Day
13h 21m
Tomorrow will be 3m 19s shorter.
Waxing Crescent, 43% of the Moon is Illuminated
Today
Waxing Crescent
Sep 2
First Quarter
Sep 8
Full
Sep 15
Last Quarter
Sep 24
New

Today's Extremes

State Highs State Lows

Community

WunderPhotos

Upload Photos

1,749,387 photos uploaded!

WunderBlogs® & News

Nearby

Air Quality

  Air Quality AQ Index Pollutant
Monday Good
OZONE
Monday Good
PM2.5
Tuesday Good
OZONE
Tuesday Good
PM2.5
Wednesday Good
OZONE
Wednesday Good
PM2.5

Snow Depth

Station Depth Elevation
Alpine Meadows 0 in 3500 ft
Burnt Mountain 0 in 4200 ft
Dungeness 0 in 4100 ft
Meadows Pass 0 in 3500 ft
Stampede Pass 3 in 3860 ft

Earthquake Activity

City Distance Mag. Time & Date
No recent earthquake activity has been reported nearby.
Minimum magnitude displayed is 2.5.

Coastal Water Temperatures

Place Temperature
Port Townsend, WA 53.1 °F
Seattle, WA 55.9 °F
Friday Harbor, WA 53.1 °F
Tacoma, WA 55.0 °F

Nearby Weather Stations